sensor_id;sensor_type;location;lat;lon;timestamp;pressure;altitude;pressure_sealevel;temperature;humidity
40994;BME280;26722;43.212;27.932;2023-02-22T00:00:56;55048.53;;;-146.72;38.10
40994;BME280;26722;43.212;27.932;2023-02-22T00:03:29;55044.31;;;-146.72;38.26
40994;BME280;26722;43.212;27.932;2023-02-22T00:06:01;55078.09;;;-146.72;38.24
40994;BME280;26722;43.212;27.932;2023-02-22T00:08:30;55052.75;;;-146.72;38.39
40994;BME280;26722;43.212;27.932;2023-02-22T00:11:01;55052.75;;;-146.72;38.43
40994;BME280;26722;43.212;27.932;2023-02-22T00:13:28;55048.53;;;-146.72;38.53
40994;BME280;26722;43.212;27.932;2023-02-22T00:15:55;55052.75;;;-146.72;38.57
40994;BME280;26722;43.212;27.932;2023-02-22T00:18:20;55054.88;;;-146.72;38.49
40994;BME280;26722;43.212;27.932;2023-02-22T00:20:46;55069.66;;;-146.72;38.58
40994;BME280;26722;43.212;27.932;2023-02-22T00:23:17;55050.66;;;-146.72;38.69
40994;BME280;26722;43.212;27.932;2023-02-22T00:25:44;55056.97;;;-146.72;38.64
40994;BME280;26722;43.212;27.932;2023-02-22T00:28:09;55065.41;;;-146.72;38.77
40994;BME280;26722;43.212;27.932;2023-02-22T00:30:35;55048.53;;;-146.72;38.81
40994;BME280;26722;43.212;27.932;2023-02-22T00:33:01;55067.53;;;-146.72;38.73
40994;BME280;26722;43.212;27.932;2023-02-22T00:35:28;55052.75;;;-146.72;38.74
40994;BME280;26722;43.212;27.932;2023-02-22T00:37:57;55073.88;;;-146.72;38.92
40994;BME280;26722;43.212;27.932;2023-02-22T00:40:26;55059.09;;;-146.72;39.04
40994;BME280;26722;43.212;27.932;2023-02-22T00:42:52;55056.97;;;-146.72;39.01
40994;BME280;26722;43.212;27.932;2023-02-22T00:45:23;55059.09;;;-146.72;39.02
40994;BME280;26722;43.212;27.932;2023-02-22T00:47:49;55065.41;;;-146.72;39.21
40994;BME280;26722;43.212;27.932;2023-02-22T00:50:18;55071.75;;;-146.72;39.37
40994;BME280;26722;43.212;27.932;2023-02-22T00:52:44;55056.97;;;-146.72;39.56
40994;BME280;26722;43.212;27.932;2023-02-22T00:55:15;55065.41;;;-146.72;39.72
40994;BME280;26722;43.212;27.932;2023-02-22T00:57:41;55073.88;;;-146.72;39.85
40994;BME280;26722;43.212;27.932;2023-02-22T01:00:08;55071.75;;;-146.72;39.98
40994;BME280;26722;43.212;27.932;2023-02-22T01:02:38;55073.88;;;-146.72;39.94
40994;BME280;26722;43.212;27.932;2023-02-22T01:05:05;55048.53;;;-146.72;40.14
40994;BME280;26722;43.212;27.932;2023-02-22T01:07:31;55069.66;;;-146.72;40.19
40994;BME280;26722;43.212;27.932;2023-02-22T01:09:56;55080.19;;;-146.72;40.29
40994;BME280;26722;43.212;27.932;2023-02-22T01:12:22;55082.31;;;-146.72;40.48
40994;BME280;26722;43.212;27.932;2023-02-22T01:14:47;55052.75;;;-146.72;40.60
40994;BME280;26722;43.212;27.932;2023-02-22T01:17:13;55088.66;;;-146.72;40.68
40994;BME280;26722;43.212;27.932;2023-02-22T01:19:38;55078.09;;;-146.72;40.84
40994;BME280;26722;43.212;27.932;2023-02-22T01:22:07;55071.75;;;-146.72;40.76
40994;BME280;26722;43.212;27.932;2023-02-22T01:24:32;55061.19;;;-146.72;40.96
40994;BME280;26722;43.212;27.932;2023-02-22T01:26:58;55063.31;;;-146.72;40.94
40994;BME280;26722;43.212;27.932;2023-02-22T01:29:23;55065.41;;;-146.72;40.83
40994;BME280;26722;43.212;27.932;2023-02-22T01:31:51;55065.41;;;-146.72;40.91
40994;BME280;26722;43.212;27.932;2023-02-22T01:34:19;55073.88;;;-146.72;40.86
40994;BME280;26722;43.212;27.932;2023-02-22T01:36:45;55073.88;;;-146.72;40.85
40994;BME280;26722;43.212;27.932;2023-02-22T01:39:10;55071.75;;;-146.72;40.97
40994;BME280;26722;43.212;27.932;2023-02-22T01:41:36;55069.66;;;-146.72;41.14
40994;BME280;26722;43.212;27.932;2023-02-22T01:44:27;55054.88;;;-146.72;41.01
40994;BME280;26722;43.212;27.932;2023-02-22T01:46:54;55059.09;;;-146.72;41.00
40994;BME280;26722;43.212;27.932;2023-02-22T01:49:22;55059.09;;;-146.72;41.07
40994;BME280;26722;43.212;27.932;2023-02-22T01:51:50;55065.41;;;-146.72;41.16
40994;BME280;26722;43.212;27.932;2023-02-22T01:57:12;55082.31;;;-146.72;41.31
40994;BME280;26722;43.212;27.932;2023-02-22T01:59:43;55067.53;;;-146.72;41.29
40994;BME280;26722;43.212;27.932;2023-02-22T02:02:11;55069.66;;;-146.72;41.58
40994;BME280;26722;43.212;27.932;2023-02-22T02:04:37;55075.97;;;-146.72;41.61
40994;BME280;26722;43.212;27.932;2023-02-22T02:07:08;55078.09;;;-146.72;41.73
40994;BME280;26722;43.212;27.932;2023-02-22T02:09:43;55056.97;;;-146.72;41.75
40994;BME280;26722;43.212;27.932;2023-02-22T02:12:14;55073.88;;;-146.72;41.84
40994;BME280;26722;43.212;27.932;2023-02-22T02:14:41;55078.09;;;-146.72;41.74
40994;BME280;26722;43.212;27.932;2023-02-22T02:17:09;55086.53;;;-146.72;41.98
40994;BME280;26722;43.212;27.932;2023-02-22T02:20:05;55061.19;;;-146.72;42.34
40994;BME280;26722;43.212;27.932;2023-02-22T02:33:30;55080.19;;;-146.72;42.57
40994;BME280;26722;43.212;27.932;2023-02-22T02:38:45;55065.41;;;-146.72;42.19
40994;BME280;26722;43.212;27.932;2023-02-22T02:41:24;55061.19;;;-146.72;42.27
40994;BME280;26722;43.212;27.932;2023-02-22T02:44:00;55059.09;;;-146.72;42.47
40994;BME280;26722;43.212;27.932;2023-02-22T02:46:48;55059.09;;;-146.72;42.53
40994;BME280;26722;43.212;27.932;2023-02-22T02:49:20;55046.41;;;-146.72;42.60
40994;BME280;26722;43.212;27.932;2023-02-22T02:51:51;55059.09;;;-146.72;42.42
40994;BME280;26722;43.212;27.932;2023-02-22T02:54:17;55061.19;;;-146.72;42.43
40994;BME280;26722;43.212;27.932;2023-02-22T02:56:44;55067.53;;;-146.72;42.56
40994;BME280;26722;43.212;27.932;2023-02-22T03:07:32;55073.88;;;-146.72;43.28
40994;BME280;26722;43.212;27.932;2023-02-22T03:16:00;55040.09;;;-146.72;44.34
40994;BME280;26722;43.212;27.932;2023-02-22T03:21:37;55073.88;;;-146.72;44.74
40994;BME280;26722;43.212;27.932;2023-02-22T03:24:30;55056.97;;;-146.72;44.75
40994;BME280;26722;43.212;27.932;2023-02-22T03:29:29;55071.75;;;-146.72;45.28
40994;BME280;26722;43.212;27.932;2023-02-22T03:32:03;55086.53;;;-146.72;45.78
40994;BME280;26722;43.212;27.932;2023-02-22T03:34:55;55065.41;;;-146.72;45.81
40994;BME280;26722;43.212;27.932;2023-02-22T03:37:26;55056.97;;;-146.72;45.84
40994;BME280;26722;43.212;27.932;2023-02-22T03:39:53;55094.97;;;-146.72;45.81
40994;BME280;26722;43.212;27.932;2023-02-22T03:42:23;55075.97;;;-146.72;46.24
40994;BME280;26722;43.212;27.932;2023-02-22T03:44:52;55073.88;;;-146.72;46.29
40994;BME280;26722;43.212;27.932;2023-02-22T03:47:29;55086.53;;;-146.72;46.59
40994;BME280;26722;43.212;27.932;2023-02-22T03:50:02;55069.66;;;-146.72;46.71
40994;BME280;26722;43.212;27.932;2023-02-22T03:52:34;55111.88;;;-146.72;46.98
40994;BME280;26722;43.212;27.932;2023-02-22T03:55:01;55132.97;;;-146.72;47.33
40994;BME280;26722;43.212;27.932;2023-02-22T03:57:36;55101.31;;;-146.72;47.46
40994;BME280;26722;43.212;27.932;2023-02-22T04:00:06;55082.31;;;-146.72;47.53
40994;BME280;26722;43.212;27.932;2023-02-22T04:02:33;55086.53;;;-146.72;47.84
40994;BME280;26722;43.212;27.932;2023-02-22T04:04:59;55103.44;;;-146.72;47.84
40994;BME280;26722;43.212;27.932;2023-02-22T04:07:24;55082.31;;;-146.72;48.15
40994;BME280;26722;43.212;27.932;2023-02-22T04:09:50;55105.53;;;-146.72;48.52
40994;BME280;26722;43.212;27.932;2023-02-22T04:12:15;55107.66;;;-146.72;48.60
40994;BME280;26722;43.212;27.932;2023-02-22T04:14:41;55094.97;;;-146.72;48.62
40994;BME280;26722;43.212;27.932;2023-02-22T04:17:06;55120.31;;;-146.72;48.53
40994;BME280;26722;43.212;27.932;2023-02-22T04:19:37;55099.19;;;-146.72;48.57
40994;BME280;26722;43.212;27.932;2023-02-22T04:22:02;55120.31;;;-146.72;48.59
40994;BME280;26722;43.212;27.932;2023-02-22T04:24:28;55090.75;;;-146.72;48.55
40994;BME280;26722;43.212;27.932;2023-02-22T04:26:53;55090.75;;;-146.72;48.26
40994;BME280;26722;43.212;27.932;2023-02-22T04:29:19;55103.44;;;-146.72;48.03
40994;BME280;26722;43.212;27.932;2023-02-22T04:31:45;55094.97;;;-146.72;47.85
40994;BME280;26722;43.212;27.932;2023-02-22T04:34:11;55111.88;;;-146.72;47.75
40994;BME280;26722;43.212;27.932;2023-02-22T04:36:36;55090.75;;;-146.72;47.67
40994;BME280;26722;43.212;27.932;2023-02-22T04:39:02;55090.75;;;-146.72;47.54
40994;BME280;26722;43.212;27.932;2023-02-22T04:41:27;55099.19;;;-146.72;47.24
40994;BME280;26722;43.212;27.932;2023-02-22T04:43:53;55086.53;;;-146.72;47.48
40994;BME280;26722;43.212;27.932;2023-02-22T04:46:18;55092.88;;;-146.72;47.51
40994;BME280;26722;43.212;27.932;2023-02-22T04:48:44;55088.66;;;-146.72;47.48
40994;BME280;26722;43.212;27.932;2023-02-22T04:51:10;55092.88;;;-146.72;47.54
40994;BME280;26722;43.212;27.932;2023-02-22T04:53:35;55084.44;;;-146.72;47.24
40994;BME280;26722;43.212;27.932;2023-02-22T04:56:01;55105.53;;;-146.72;47.27
40994;BME280;26722;43.212;27.932;2023-02-22T04:58:27;55103.44;;;-146.72;47.22
40994;BME280;26722;43.212;27.932;2023-02-22T05:00:52;55080.19;;;-146.72;47.32
40994;BME280;26722;43.212;27.932;2023-02-22T05:03:18;55092.88;;;-146.72;47.42
40994;BME280;26722;43.212;27.932;2023-02-22T05:05:43;55111.88;;;-146.72;47.44
40994;BME280;26722;43.212;27.932;2023-02-22T05:08:09;55094.97;;;-146.72;47.42
40994;BME280;26722;43.212;27.932;2023-02-22T05:10:34;55097.09;;;-146.72;47.51
40994;BME280;26722;43.212;27.932;2023-02-22T05:13:00;55111.88;;;-146.72;47.40
40994;BME280;26722;43.212;27.932;2023-02-22T05:15:25;55088.66;;;-146.72;47.26
40994;BME280;26722;43.212;27.932;2023-02-22T05:17:51;55082.31;;;-146.72;47.12
40994;BME280;26722;43.212;27.932;2023-02-22T05:22:47;55086.53;;;-146.72;46.89
40994;BME280;26722;43.212;27.932;2023-02-22T05:25:13;55107.66;;;-146.72;46.63
40994;BME280;26722;43.212;27.932;2023-02-22T05:27:38;55094.97;;;-146.72;46.55
40994;BME280;26722;43.212;27.932;2023-02-22T05:30:04;55088.66;;;-146.72;46.46
40994;BME280;26722;43.212;27.932;2023-02-22T05:32:33;55084.44;;;-146.72;46.07
40994;BME280;26722;43.212;27.932;2023-02-22T05:34:59;55069.66;;;-146.72;45.89
40994;BME280;26722;43.212;27.932;2023-02-22T05:37:24;55075.97;;;-146.72;45.58
40994;BME280;26722;43.212;27.932;2023-02-22T05:39:50;55063.31;;;-146.72;45.25
40994;BME280;26722;43.212;27.932;2023-02-22T05:42:15;55071.75;;;-146.72;45.04
40994;BME280;26722;43.212;27.932;2023-02-22T05:44:41;55073.88;;;-146.72;44.45
40994;BME280;26722;43.212;27.932;2023-02-22T05:47:06;55048.53;;;-146.72;44.35
40994;BME280;26722;43.212;27.932;2023-02-22T05:49:32;55048.53;;;-146.72;44.26
40994;BME280;26722;43.212;27.932;2023-02-22T05:51:57;55073.88;;;-146.72;44.07
40994;BME280;26722;43.212;27.932;2023-02-22T05:54:24;55065.41;;;-146.72;43.81
40994;BME280;26722;43.212;27.932;2023-02-22T05:56:50;55046.41;;;-146.72;43.87
40994;BME280;26722;43.212;27.932;2023-02-22T05:59:15;55048.53;;;-146.72;43.75
40994;BME280;26722;43.212;27.932;2023-02-22T06:01:41;55067.53;;;-146.72;43.63
40994;BME280;26722;43.212;27.932;2023-02-22T06:04:06;55061.19;;;-146.72;43.21
40994;BME280;26722;43.212;27.932;2023-02-22T06:06:31;55059.09;;;-146.72;43.17
40994;BME280;26722;43.212;27.932;2023-02-22T06:08:57;55037.97;;;-146.72;42.79
40994;BME280;26722;43.212;27.932;2023-02-22T06:11:23;55054.88;;;-146.72;42.61
40994;BME280;26722;43.212;27.932;2023-02-22T06:13:52;55046.41;;;-146.72;42.56
40994;BME280;26722;43.212;27.932;2023-02-22T06:16:19;55035.88;;;-146.72;42.42
40994;BME280;26722;43.212;27.932;2023-02-22T06:18:46;55056.97;;;-146.72;42.66
40994;BME280;26722;43.212;27.932;2023-02-22T06:21:11;55052.75;;;-146.72;42.28
40994;BME280;26722;43.212;27.932;2023-02-22T06:23:36;55056.97;;;-146.72;42.06
40994;BME280;26722;43.212;27.932;2023-02-22T06:26:02;55040.09;;;-146.72;41.83
40994;BME280;26722;43.212;27.932;2023-02-22T06:28:27;55048.53;;;-146.72;41.61
40994;BME280;26722;43.212;27.932;2023-02-22T06:30:53;55031.66;;;-146.72;41.44
40994;BME280;26722;43.212;27.932;2023-02-22T06:33:18;55044.31;;;-146.72;41.14
40994;BME280;26722;43.212;27.932;2023-02-22T06:35:44;54997.88;;;-146.72;40.69
40994;BME280;26722;43.212;27.932;2023-02-22T06:38:09;55063.31;;;-146.72;40.33
40994;BME280;26722;43.212;27.932;2023-02-22T06:40:35;55018.97;;;-146.72;39.91
40994;BME280;26722;43.212;27.932;2023-02-22T06:43:01;55027.41;;;-146.72;39.97
40994;BME280;26722;43.212;27.932;2023-02-22T06:45:27;55027.41;;;-146.72;39.69
40994;BME280;26722;43.212;27.932;2023-02-22T06:47:52;55023.19;;;-146.72;39.41
40994;BME280;26722;43.212;27.932;2023-02-22T06:50:23;55021.09;;;-146.72;39.46
40994;BME280;26722;43.212;27.932;2023-02-22T06:52:50;55014.75;;;-146.72;39.04
40994;BME280;26722;43.212;27.932;2023-02-22T06:55:18;55021.09;;;-146.72;39.61
40994;BME280;26722;43.212;27.932;2023-02-22T06:57:43;55021.09;;;-146.72;39.64
40994;BME280;26722;43.212;27.932;2023-02-22T07:00:09;55014.75;;;-146.72;39.54
40994;BME280;26722;43.212;27.932;2023-02-22T07:02:35;55004.19;;;-146.72;39.83
40994;BME280;26722;43.212;27.932;2023-02-22T07:05:01;55002.09;;;-146.72;39.81
40994;BME280;26722;43.212;27.932;2023-02-22T07:07:26;55035.88;;;-146.72;39.70
40994;BME280;26722;43.212;27.932;2023-02-22T07:09:52;55014.75;;;-146.72;39.94
40994;BME280;26722;43.212;27.932;2023-02-22T07:12:17;55021.09;;;-146.72;40.03
40994;BME280;26722;43.212;27.932;2023-02-22T07:14:43;55002.09;;;-146.72;39.81
40994;BME280;26722;43.212;27.932;2023-02-22T07:17:08;55027.41;;;-146.72;39.78
40994;BME280;26722;43.212;27.932;2023-02-22T07:19:35;55025.31;;;-146.72;39.72
40994;BME280;26722;43.212;27.932;2023-02-22T07:22:01;55002.09;;;-146.72;39.88
40994;BME280;26722;43.212;27.932;2023-02-22T07:24:26;55025.31;;;-146.72;39.17
40994;BME280;26722;43.212;27.932;2023-02-22T07:26:54;54995.75;;;-146.72;39.12
40994;BME280;26722;43.212;27.932;2023-02-22T07:29:20;55014.75;;;-146.72;39.15
40994;BME280;26722;43.212;27.932;2023-02-22T07:31:46;54997.88;;;-146.72;39.02
40994;BME280;26722;43.212;27.932;2023-02-22T07:34:12;55006.31;;;-146.72;38.89
40994;BME280;26722;43.212;27.932;2023-02-22T07:36:38;55014.75;;;-146.72;38.65
40994;BME280;26722;43.212;27.932;2023-02-22T07:39:03;55002.09;;;-146.72;38.67
40994;BME280;26722;43.212;27.932;2023-02-22T07:41:33;55004.19;;;-146.72;38.71
40994;BME280;26722;43.212;27.932;2023-02-22T07:43:58;54989.41;;;-146.72;38.56
40994;BME280;26722;43.212;27.932;2023-02-22T07:46:24;54997.88;;;-146.72;38.27
40994;BME280;26722;43.212;27.932;2023-02-22T07:48:49;55006.31;;;-146.72;38.64
40994;BME280;26722;43.212;27.932;2023-02-22T07:51:16;54995.75;;;-146.72;39.05
40994;BME280;26722;43.212;27.932;2023-02-22T07:53:42;55025.31;;;-146.72;39.20
40994;BME280;26722;43.212;27.932;2023-02-22T07:56:07;55004.19;;;-146.72;38.54
40994;BME280;26722;43.212;27.932;2023-02-22T07:58:33;55012.63;;;-146.72;39.16
40994;BME280;26722;43.212;27.932;2023-02-22T08:01:02;55010.53;;;-146.72;38.51
40994;BME280;26722;43.212;27.932;2023-02-22T08:03:34;55002.09;;;-146.72;39.09
40994;BME280;26722;43.212;27.932;2023-02-22T08:06:04;55023.19;;;-146.72;39.08
40994;BME280;26722;43.212;27.932;2023-02-22T08:08:30;55018.97;;;-146.72;39.24
40994;BME280;26722;43.212;27.932;2023-02-22T08:10:56;55006.31;;;-146.72;38.84
40994;BME280;26722;43.212;27.932;2023-02-22T08:13:22;55010.53;;;-146.72;39.33
40994;BME280;26722;43.212;27.932;2023-02-22T08:15:50;55018.97;;;-146.72;38.79
40994;BME280;26722;43.212;27.932;2023-02-22T08:18:17;54985.19;;;-146.72;39.11
40994;BME280;26722;43.212;27.932;2023-02-22T08:20:45;54997.88;;;-146.72;38.34
40994;BME280;26722;43.212;27.932;2023-02-22T08:23:11;54989.41;;;-146.72;38.34
40994;BME280;26722;43.212;27.932;2023-02-22T08:25:37;54993.63;;;-146.72;38.61
40994;BME280;26722;43.212;27.932;2023-02-22T08:28:08;55006.31;;;-146.72;39.22
40994;BME280;26722;43.212;27.932;2023-02-22T08:30:35;55016.88;;;-146.72;39.65
40994;BME280;26722;43.212;27.932;2023-02-22T08:33:01;55014.75;;;-146.72;39.99
40994;BME280;26722;43.212;27.932;2023-02-22T08:35:28;55014.75;;;-146.72;40.73
40994;BME280;26722;43.212;27.932;2023-02-22T08:37:57;55033.75;;;-146.72;40.23
40994;BME280;26722;43.212;27.932;2023-02-22T08:40:25;55018.97;;;-146.72;39.92
40994;BME280;26722;43.212;27.932;2023-02-22T08:42:52;55006.31;;;-146.72;40.53
40994;BME280;26722;43.212;27.932;2023-02-22T08:45:17;55023.19;;;-146.72;40.21
40994;BME280;26722;43.212;27.932;2023-02-22T08:47:43;55061.19;;;-146.72;40.30
40994;BME280;26722;43.212;27.932;2023-02-22T08:50:23;55031.66;;;-146.72;40.16
40994;BME280;26722;43.212;27.932;2023-02-22T08:52:55;55014.75;;;-146.72;39.64
40994;BME280;26722;43.212;27.932;2023-02-22T08:55:22;55031.66;;;-146.72;39.82
40994;BME280;26722;43.212;27.932;2023-02-22T08:57:47;55004.19;;;-146.72;39.84
40994;BME280;26722;43.212;27.932;2023-02-22T09:00:13;55016.88;;;-146.72;39.86
40994;BME280;26722;43.212;27.932;2023-02-22T09:02:40;54997.88;;;-146.72;39.62
40994;BME280;26722;43.212;27.932;2023-02-22T09:05:06;55018.97;;;-146.72;39.32
40994;BME280;26722;43.212;27.932;2023-02-22T09:07:32;55018.97;;;-146.72;39.86
40994;BME280;26722;43.212;27.932;2023-02-22T09:09:57;55006.31;;;-146.72;40.51
40994;BME280;26722;43.212;27.932;2023-02-22T09:12:23;54999.97;;;-146.72;40.98
40994;BME280;26722;43.212;27.932;2023-02-22T09:14:48;55014.75;;;-146.72;41.30
40994;BME280;26722;43.212;27.932;2023-02-22T09:17:13;55012.63;;;-146.72;40.74
40994;BME280;26722;43.212;27.932;2023-02-22T09:19:39;54993.63;;;-146.72;40.56
40994;BME280;26722;43.212;27.932;2023-02-22T09:22:04;55002.09;;;-146.72;40.79
40994;BME280;26722;43.212;27.932;2023-02-22T09:24:30;55012.63;;;-146.72;41.39
40994;BME280;26722;43.212;27.932;2023-02-22T09:26:55;55021.09;;;-146.72;41.82
40994;BME280;26722;43.212;27.932;2023-02-22T09:29:25;55023.19;;;-146.72;41.86
40994;BME280;26722;43.212;27.932;2023-02-22T09:31:52;55018.97;;;-146.72;42.36
40994;BME280;26722;43.212;27.932;2023-02-22T09:34:20;55012.63;;;-146.72;42.29
40994;BME280;26722;43.212;27.932;2023-02-22T09:36:47;55018.97;;;-146.72;43.02
40994;BME280;26722;43.212;27.932;2023-02-22T09:39:16;55014.75;;;-146.72;42.79
40994;BME280;26722;43.212;27.932;2023-02-22T09:42:10;55023.19;;;-146.72;42.69
40994;BME280;26722;43.212;27.932;2023-02-22T09:44:45;55006.31;;;-146.72;42.38
40994;BME280;26722;43.212;27.932;2023-02-22T09:47:19;54999.97;;;-146.72;41.84
40994;BME280;26722;43.212;27.932;2023-02-22T09:55:00;55004.19;;;-146.72;41.73
40994;BME280;26722;43.212;27.932;2023-02-22T09:57:34;54980.97;;;-146.72;42.04
40994;BME280;26722;43.212;27.932;2023-02-22T10:00:13;54997.88;;;-146.72;41.94
40994;BME280;26722;43.212;27.932;2023-02-22T10:05:30;54991.53;;;-146.72;41.72
40994;BME280;26722;43.212;27.932;2023-02-22T10:08:12;55010.53;;;-146.72;41.81
40994;BME280;26722;43.212;27.932;2023-02-22T10:10:41;55002.09;;;-146.72;41.92
40994;BME280;26722;43.212;27.932;2023-02-22T10:13:31;55031.66;;;-146.72;41.51
40994;BME280;26722;43.212;27.932;2023-02-22T10:30:29;54993.63;;;-146.72;41.48
40994;BME280;26722;43.212;27.932;2023-02-22T10:33:16;54993.63;;;-146.72;41.99
40994;BME280;26722;43.212;27.932;2023-02-22T10:35:44;54993.63;;;-146.72;42.38
40994;BME280;26722;43.212;27.932;2023-02-22T10:38:19;54997.88;;;-146.72;42.72
40994;BME280;26722;43.212;27.932;2023-02-22T10:40:49;54985.19;;;-146.72;43.58
40994;BME280;26722;43.212;27.932;2023-02-22T10:43:15;55021.09;;;-146.72;43.61
40994;BME280;26722;43.212;27.932;2023-02-22T10:45:40;55014.75;;;-146.72;43.39
40994;BME280;26722;43.212;27.932;2023-02-22T10:48:09;55012.63;;;-146.72;44.02
40994;BME280;26722;43.212;27.932;2023-02-22T10:50:39;55023.19;;;-146.72;43.97
40994;BME280;26722;43.212;27.932;2023-02-22T10:53:06;55031.66;;;-146.72;44.02
40994;BME280;26722;43.212;27.932;2023-02-22T10:55:32;55035.88;;;-146.72;44.44
40994;BME280;26722;43.212;27.932;2023-02-22T10:58:09;55002.09;;;-146.72;44.93
40994;BME280;26722;43.212;27.932;2023-02-22T11:00:38;55035.88;;;-146.72;45.35
40994;BME280;26722;43.212;27.932;2023-02-22T11:03:18;55031.66;;;-146.72;46.31
40994;BME280;26722;43.212;27.932;2023-02-22T11:05:45;55025.31;;;-146.72;46.97
40994;BME280;26722;43.212;27.932;2023-02-22T11:08:29;55010.53;;;-146.72;46.47
40994;BME280;26722;43.212;27.932;2023-02-22T11:11:00;55014.75;;;-146.72;47.49
40994;BME280;26722;43.212;27.932;2023-02-22T11:13:37;55010.53;;;-146.72;47.77
40994;BME280;26722;43.212;27.932;2023-02-22T11:21:45;55040.09;;;-146.72;48.77
40994;BME280;26722;43.212;27.932;2023-02-22T11:24:13;55031.66;;;-146.72;49.06
40994;BME280;26722;43.212;27.932;2023-02-22T11:26:44;55042.19;;;-146.72;48.50
40994;BME280;26722;43.212;27.932;2023-02-22T11:29:17;55023.19;;;-146.72;47.72
40994;BME280;26722;43.212;27.932;2023-02-22T11:31:45;55029.53;;;-146.72;47.96
40994;BME280;26722;43.212;27.932;2023-02-22T11:34:43;55040.09;;;-146.72;48.58
40994;BME280;26722;43.212;27.932;2023-02-22T11:37:32;55035.88;;;-146.72;48.52
40994;BME280;26722;43.212;27.932;2023-02-22T11:42:46;55042.19;;;-146.72;47.48
40994;BME280;26722;43.212;27.932;2023-02-22T11:47:56;55027.41;;;-146.72;45.42
40994;BME280;26722;43.212;27.932;2023-02-22T11:53:31;55035.88;;;-146.72;43.69
40994;BME280;26722;43.212;27.932;2023-02-22T11:56:18;55037.97;;;-146.72;42.87
40994;BME280;26722;43.212;27.932;2023-02-22T11:59:02;55031.66;;;-146.72;42.63
40994;BME280;26722;43.212;27.932;2023-02-22T12:10:13;55052.75;;;-146.72;43.11
40994;BME280;26722;43.212;27.932;2023-02-22T12:13:04;55046.41;;;-146.72;43.94
40994;BME280;26722;43.212;27.932;2023-02-22T12:18:35;55052.75;;;-146.72;44.79
40994;BME280;26722;43.212;27.932;2023-02-22T12:21:12;55061.19;;;-146.72;44.89
40994;BME280;26722;43.212;27.932;2023-02-22T12:26:17;55065.41;;;-146.72;42.96
40994;BME280;26722;43.212;27.932;2023-02-22T12:28:57;55044.31;;;-146.72;42.96
40994;BME280;26722;43.212;27.932;2023-02-22T12:34:23;55050.66;;;-146.72;42.20
40994;BME280;26722;43.212;27.932;2023-02-22T12:37:41;55044.31;;;-146.72;43.58
40994;BME280;26722;43.212;27.932;2023-02-22T12:40:20;55046.41;;;-146.72;44.15
40994;BME280;26722;43.212;27.932;2023-02-22T12:50:35;55063.31;;;-146.72;42.55
40994;BME280;26722;43.212;27.932;2023-02-22T12:53:16;55078.09;;;-146.72;43.46
40994;BME280;26722;43.212;27.932;2023-02-22T12:55:50;55027.41;;;-146.72;43.77
40994;BME280;26722;43.212;27.932;2023-02-22T12:58:43;55054.88;;;-146.72;43.27
40994;BME280;26722;43.212;27.932;2023-02-22T13:01:17;55061.19;;;-146.72;43.25
40994;BME280;26722;43.212;27.932;2023-02-22T13:03:44;55052.75;;;-146.72;43.49
40994;BME280;26722;43.212;27.932;2023-02-22T13:06:16;55073.88;;;-146.72;43.31
40994;BME280;26722;43.212;27.932;2023-02-22T13:11:42;55061.19;;;-146.72;42.59
40994;BME280;26722;43.212;27.932;2023-02-22T13:14:43;55075.97;;;-146.72;42.22
40994;BME280;26722;43.212;27.932;2023-02-22T13:20:44;55054.88;;;-146.72;41.28
40994;BME280;26722;43.212;27.932;2023-02-22T13:26:08;55084.44;;;-146.72;41.84
40994;BME280;26722;43.212;27.932;2023-02-22T13:28:48;55080.19;;;-146.72;41.24
40994;BME280;26722;43.212;27.932;2023-02-22T13:37:13;55040.09;;;-146.72;41.24
40994;BME280;26722;43.212;27.932;2023-02-22T13:56:08;55071.75;;;-146.72;40.46
40994;BME280;26722;43.212;27.932;2023-02-22T13:59:19;55065.41;;;-146.72;40.61
40994;BME280;26722;43.212;27.932;2023-02-22T14:01:47;55086.53;;;-146.72;41.07
40994;BME280;26722;43.212;27.932;2023-02-22T14:06:57;55082.31;;;-146.72;41.48
40994;BME280;26722;43.212;27.932;2023-02-22T14:20:29;55084.44;;;-146.72;40.30
40994;BME280;26722;43.212;27.932;2023-02-22T14:22:58;55065.41;;;-146.72;40.74
40994;BME280;26722;43.212;27.932;2023-02-22T14:25:42;55078.09;;;-146.72;41.08
40994;BME280;26722;43.212;27.932;2023-02-22T14:28:32;55082.31;;;-146.72;41.09
40994;BME280;26722;43.212;27.932;2023-02-22T14:31:15;55073.88;;;-146.72;41.50
40994;BME280;26722;43.212;27.932;2023-02-22T14:39:26;55086.53;;;-146.72;41.31
40994;BME280;26722;43.212;27.932;2023-02-22T14:42:11;55078.09;;;-146.72;41.64
40994;BME280;26722;43.212;27.932;2023-02-22T14:47:30;55073.88;;;-146.72;42.62
40994;BME280;26722;43.212;27.932;2023-02-22T14:50:26;55078.09;;;-146.72;42.18
40994;BME280;26722;43.212;27.932;2023-02-22T14:53:35;55107.66;;;-146.72;41.54
40994;BME280;26722;43.212;27.932;2023-02-22T14:56:07;55052.75;;;-146.72;41.54
40994;BME280;26722;43.212;27.932;2023-02-22T14:58:40;55116.09;;;-146.72;40.92
40994;BME280;26722;43.212;27.932;2023-02-22T15:01:22;55090.75;;;-146.72;41.25
40994;BME280;26722;43.212;27.932;2023-02-22T15:03:47;55082.31;;;-146.72;41.13
40994;BME280;26722;43.212;27.932;2023-02-22T15:06:20;55099.19;;;-146.72;40.83
40994;BME280;26722;43.212;27.932;2023-02-22T15:08:48;55092.88;;;-146.72;40.52
40994;BME280;26722;43.212;27.932;2023-02-22T15:11:21;55103.44;;;-146.72;40.61
40994;BME280;26722;43.212;27.932;2023-02-22T15:13:52;55103.44;;;-146.72;40.48
40994;BME280;26722;43.212;27.932;2023-02-22T15:16:17;55099.19;;;-146.72;40.37
40994;BME280;26722;43.212;27.932;2023-02-22T15:18:47;55099.19;;;-146.72;40.53